sensor_id;sensor_type;location;lat;lon;timestamp;P1;durP1;ratioP1;P2;durP2;ratioP2
74059;SDS011;62414;53.436;8.828;2023-10-08T00:01:18;11.30;;;2.70;;
74059;SDS011;62414;53.436;8.828;2023-10-08T00:03:46;7.95;;;2.90;;
74059;SDS011;62414;53.436;8.828;2023-10-08T00:06:11;10.03;;;2.70;;
74059;SDS011;62414;53.436;8.828;2023-10-08T00:08:37;12.73;;;2.95;;
74059;SDS011;62414;53.436;8.828;2023-10-08T00:11:02;12.00;;;2.87;;
74059;SDS011;62414;53.436;8.828;2023-10-08T00:13:28;12.90;;;2.60;;
74059;SDS011;62414;53.436;8.828;2023-10-08T00:15:53;10.10;;;2.87;;
74059;SDS011;62414;53.436;8.828;2023-10-08T00:18:19;8.37;;;2.33;;
74059;SDS011;62414;53.436;8.828;2023-10-08T00:20:46;13.47;;;2.60;;
74059;SDS011;62414;53.436;8.828;2023-10-08T00:23:11;8.93;;;2.65;;
74059;SDS011;62414;53.436;8.828;2023-10-08T00:25:36;8.40;;;2.70;;
74059;SDS011;62414;53.436;8.828;2023-10-08T00:28:02;10.48;;;2.33;;
74059;SDS011;62414;53.436;8.828;2023-10-08T00:30:28;11.20;;;2.30;;
74059;SDS011;62414;53.436;8.828;2023-10-08T00:32:53;11.77;;;2.55;;
74059;SDS011;62414;53.436;8.828;2023-10-08T00:35:19;11.93;;;2.40;;
74059;SDS011;62414;53.436;8.828;2023-10-08T00:37:45;14.43;;;2.60;;
74059;SDS011;62414;53.436;8.828;2023-10-08T00:40:11;10.45;;;2.40;;
74059;SDS011;62414;53.436;8.828;2023-10-08T00:42:37;10.38;;;2.08;;
74059;SDS011;62414;53.436;8.828;2023-10-08T00:45:03;7.63;;;1.90;;
74059;SDS011;62414;53.436;8.828;2023-10-08T00:47:29;9.40;;;1.80;;
74059;SDS011;62414;53.436;8.828;2023-10-08T00:49:54;9.87;;;2.00;;
74059;SDS011;62414;53.436;8.828;2023-10-08T00:52:20;11.45;;;2.10;;
74059;SDS011;62414;53.436;8.828;2023-10-08T00:54:47;8.77;;;1.80;;
74059;SDS011;62414;53.436;8.828;2023-10-08T00:57:13;6.18;;;1.60;;
74059;SDS011;62414;53.436;8.828;2023-10-08T00:59:40;9.15;;;1.70;;
74059;SDS011;62414;53.436;8.828;2023-10-08T01:02:05;7.40;;;1.63;;
74059;SDS011;62414;53.436;8.828;2023-10-08T01:04:31;10.50;;;1.70;;
74059;SDS011;62414;53.436;8.828;2023-10-08T01:06:57;9.35;;;1.77;;
74059;SDS011;62414;53.436;8.828;2023-10-08T01:09:23;8.93;;;1.53;;
74059;SDS011;62414;53.436;8.828;2023-10-08T01:14:33;9.83;;;1.30;;
74059;SDS011;62414;53.436;8.828;2023-10-08T01:16:59;7.97;;;1.48;;
74059;SDS011;62414;53.436;8.828;2023-10-08T01:19:24;7.97;;;1.33;;
74059;SDS011;62414;53.436;8.828;2023-10-08T01:21:49;7.83;;;1.63;;
74059;SDS011;62414;53.436;8.828;2023-10-08T01:24:16;9.73;;;1.50;;
74059;SDS011;62414;53.436;8.828;2023-10-08T01:26:42;9.17;;;1.23;;
74059;SDS011;62414;53.436;8.828;2023-10-08T01:29:10;7.95;;;1.17;;
74059;SDS011;62414;53.436;8.828;2023-10-08T01:31:36;9.27;;;1.63;;
74059;SDS011;62414;53.436;8.828;2023-10-08T01:34:01;12.48;;;1.60;;
74059;SDS011;62414;53.436;8.828;2023-10-08T01:36:27;10.10;;;1.40;;
74059;SDS011;62414;53.436;8.828;2023-10-08T01:38:52;7.53;;;1.20;;
74059;SDS011;62414;53.436;8.828;2023-10-08T01:41:19;8.97;;;1.50;;
74059;SDS011;62414;53.436;8.828;2023-10-08T01:43:45;8.05;;;1.30;;
74059;SDS011;62414;53.436;8.828;2023-10-08T01:46:10;6.23;;;1.47;;
74059;SDS011;62414;53.436;8.828;2023-10-08T01:48:36;8.73;;;1.67;;
74059;SDS011;62414;53.436;8.828;2023-10-08T01:51:01;9.32;;;1.90;;
74059;SDS011;62414;53.436;8.828;2023-10-08T01:53:27;7.47;;;1.80;;
74059;SDS011;62414;53.436;8.828;2023-10-08T01:55:52;9.07;;;1.80;;
74059;SDS011;62414;53.436;8.828;2023-10-08T01:58:19;13.48;;;1.92;;
74059;SDS011;62414;53.436;8.828;2023-10-08T02:00:46;7.80;;;1.50;;
74059;SDS011;62414;53.436;8.828;2023-10-08T02:03:14;8.73;;;1.40;;
74059;SDS011;62414;53.436;8.828;2023-10-08T02:05:41;8.80;;;1.40;;
74059;SDS011;62414;53.436;8.828;2023-10-08T02:08:06;7.13;;;1.42;;
74059;SDS011;62414;53.436;8.828;2023-10-08T02:10:32;7.80;;;1.23;;
74059;SDS011;62414;53.436;8.828;2023-10-08T02:12:57;5.70;;;1.20;;
74059;SDS011;62414;53.436;8.828;2023-10-08T02:15:25;10.75;;;1.48;;
74059;SDS011;62414;53.436;8.828;2023-10-08T02:17:50;6.90;;;1.30;;
74059;SDS011;62414;53.436;8.828;2023-10-08T02:20:16;8.57;;;1.50;;
74059;SDS011;62414;53.436;8.828;2023-10-08T02:22:41;7.93;;;1.80;;
74059;SDS011;62414;53.436;8.828;2023-10-08T02:25:07;7.47;;;1.83;;
74059;SDS011;62414;53.436;8.828;2023-10-08T02:27:33;14.27;;;2.30;;
74059;SDS011;62414;53.436;8.828;2023-10-08T02:29:58;9.17;;;2.00;;
74059;SDS011;62414;53.436;8.828;2023-10-08T02:32:25;11.10;;;2.30;;
74059;SDS011;62414;53.436;8.828;2023-10-08T02:34:51;10.98;;;1.95;;
74059;SDS011;62414;53.436;8.828;2023-10-08T02:37:16;10.20;;;2.40;;
74059;SDS011;62414;53.436;8.828;2023-10-08T02:39:42;7.47;;;1.83;;
74059;SDS011;62414;53.436;8.828;2023-10-08T02:42:07;8.73;;;2.37;;
74059;SDS011;62414;53.436;8.828;2023-10-08T02:44:33;10.68;;;2.13;;
74059;SDS011;62414;53.436;8.828;2023-10-08T02:46:58;11.77;;;2.03;;
74059;SDS011;62414;53.436;8.828;2023-10-08T02:49:25;8.57;;;1.80;;
74059;SDS011;62414;53.436;8.828;2023-10-08T02:51:51;10.13;;;2.00;;
74059;SDS011;62414;53.436;8.828;2023-10-08T02:54:18;8.48;;;2.03;;
74059;SDS011;62414;53.436;8.828;2023-10-08T02:56:44;11.05;;;2.00;;
74059;SDS011;62414;53.436;8.828;2023-10-08T02:59:10;9.10;;;2.08;;
74059;SDS011;62414;53.436;8.828;2023-10-08T03:01:35;10.33;;;1.60;;
74059;SDS011;62414;53.436;8.828;2023-10-08T03:04:01;9.15;;;1.52;;
74059;SDS011;62414;53.436;8.828;2023-10-08T03:06:28;8.27;;;1.43;;
74059;SDS011;62414;53.436;8.828;2023-10-08T03:08:53;12.43;;;1.50;;
74059;SDS011;62414;53.436;8.828;2023-10-08T03:11:19;10.37;;;1.70;;
74059;SDS011;62414;53.436;8.828;2023-10-08T03:13:44;10.57;;;1.40;;
74059;SDS011;62414;53.436;8.828;2023-10-08T03:16:11;10.70;;;1.43;;
74059;SDS011;62414;53.436;8.828;2023-10-08T03:18:37;6.18;;;1.23;;
74059;SDS011;62414;53.436;8.828;2023-10-08T03:21:02;7.17;;;1.23;;
74059;SDS011;62414;53.436;8.828;2023-10-08T03:23:30;6.90;;;1.27;;
74059;SDS011;62414;53.436;8.828;2023-10-08T03:25:56;8.38;;;1.40;;
74059;SDS011;62414;53.436;8.828;2023-10-08T03:28:22;6.03;;;1.20;;
74059;SDS011;62414;53.436;8.828;2023-10-08T03:30:48;6.93;;;1.30;;
74059;SDS011;62414;53.436;8.828;2023-10-08T03:33:13;9.57;;;1.30;;
74059;SDS011;62414;53.436;8.828;2023-10-08T03:35:39;8.23;;;1.30;;
74059;SDS011;62414;53.436;8.828;2023-10-08T03:38:04;7.50;;;1.27;;
74059;SDS011;62414;53.436;8.828;2023-10-08T03:40:31;6.83;;;1.43;;
74059;SDS011;62414;53.436;8.828;2023-10-08T03:42:57;7.22;;;1.50;;
74059;SDS011;62414;53.436;8.828;2023-10-08T03:45:22;4.87;;;1.10;;
74059;SDS011;62414;53.436;8.828;2023-10-08T03:47:48;6.77;;;1.27;;
74059;SDS011;62414;53.436;8.828;2023-10-08T03:50:13;7.40;;;1.23;;
74059;SDS011;62414;53.436;8.828;2023-10-08T03:52:39;12.70;;;1.80;;
74059;SDS011;62414;53.436;8.828;2023-10-08T03:55:05;6.23;;;1.60;;
74059;SDS011;62414;53.436;8.828;2023-10-08T03:57:32;7.70;;;1.40;;
74059;SDS011;62414;53.436;8.828;2023-10-08T03:59:57;10.50;;;1.65;;
74059;SDS011;62414;53.436;8.828;2023-10-08T04:02:23;5.77;;;1.27;;
74059;SDS011;62414;53.436;8.828;2023-10-08T04:04:48;8.43;;;1.67;;
74059;SDS011;62414;53.436;8.828;2023-10-08T04:07:14;6.85;;;1.33;;
74059;SDS011;62414;53.436;8.828;2023-10-08T04:09:40;8.65;;;1.50;;
74059;SDS011;62414;53.436;8.828;2023-10-08T04:12:05;6.87;;;1.53;;
74059;SDS011;62414;53.436;8.828;2023-10-08T04:14:32;7.00;;;1.60;;
74059;SDS011;62414;53.436;8.828;2023-10-08T04:16:58;10.05;;;2.17;;
74059;SDS011;62414;53.436;8.828;2023-10-08T04:19:23;11.90;;;2.23;;
74059;SDS011;62414;53.436;8.828;2023-10-08T04:21:48;9.57;;;1.80;;
74059;SDS011;62414;53.436;8.828;2023-10-08T04:24:14;8.77;;;1.88;;
74059;SDS011;62414;53.436;8.828;2023-10-08T04:26:39;9.20;;;2.10;;
74059;SDS011;62414;53.436;8.828;2023-10-08T04:29:05;8.07;;;1.80;;
74059;SDS011;62414;53.436;8.828;2023-10-08T04:31:32;8.17;;;1.70;;
74059;SDS011;62414;53.436;8.828;2023-10-08T04:33:58;6.38;;;1.50;;
74059;SDS011;62414;53.436;8.828;2023-10-08T04:36:23;10.33;;;2.40;;
74059;SDS011;62414;53.436;8.828;2023-10-08T04:38:49;6.37;;;1.70;;
74059;SDS011;62414;53.436;8.828;2023-10-08T04:41:15;7.93;;;1.37;;
74059;SDS011;62414;53.436;8.828;2023-10-08T04:43:40;9.33;;;1.53;;
74059;SDS011;62414;53.436;8.828;2023-10-08T04:46:06;6.80;;;1.70;;
74059;SDS011;62414;53.436;8.828;2023-10-08T04:48:32;6.57;;;1.50;;
74059;SDS011;62414;53.436;8.828;2023-10-08T04:50:58;8.18;;;1.48;;
74059;SDS011;62414;53.436;8.828;2023-10-08T04:53:25;8.57;;;1.70;;
74059;SDS011;62414;53.436;8.828;2023-10-08T04:55:50;6.10;;;1.75;;
74059;SDS011;62414;53.436;8.828;2023-10-08T04:58:16;5.77;;;1.30;;
74059;SDS011;62414;53.436;8.828;2023-10-08T05:00:41;6.68;;;1.52;;
74059;SDS011;62414;53.436;8.828;2023-10-08T05:03:07;5.73;;;1.60;;
74059;SDS011;62414;53.436;8.828;2023-10-08T05:05:34;6.10;;;1.37;;
74059;SDS011;62414;53.436;8.828;2023-10-08T05:07:59;5.90;;;1.48;;
74059;SDS011;62414;53.436;8.828;2023-10-08T05:10:24;8.03;;;1.43;;
74059;SDS011;62414;53.436;8.828;2023-10-08T05:12:50;6.50;;;1.33;;
74059;SDS011;62414;53.436;8.828;2023-10-08T05:15:15;7.13;;;1.30;;
74059;SDS011;62414;53.436;8.828;2023-10-08T05:17:41;10.93;;;1.60;;
74059;SDS011;62414;53.436;8.828;2023-10-08T05:20:08;10.27;;;1.57;;
74059;SDS011;62414;53.436;8.828;2023-10-08T05:22:35;7.60;;;1.70;;
74059;SDS011;62414;53.436;8.828;2023-10-08T05:25:01;11.32;;;1.80;;
74059;SDS011;62414;53.436;8.828;2023-10-08T05:27:27;10.40;;;1.90;;
74059;SDS011;62414;53.436;8.828;2023-10-08T05:29:52;8.17;;;1.97;;
74059;SDS011;62414;53.436;8.828;2023-10-08T05:32:17;7.30;;;2.07;;
74059;SDS011;62414;53.436;8.828;2023-10-08T05:34:43;8.13;;;2.30;;
74059;SDS011;62414;53.436;8.828;2023-10-08T05:37:09;8.68;;;2.28;;
74059;SDS011;62414;53.436;8.828;2023-10-08T05:39:35;8.70;;;2.20;;
74059;SDS011;62414;53.436;8.828;2023-10-08T05:42:01;6.95;;;2.30;;
74059;SDS011;62414;53.436;8.828;2023-10-08T05:44:26;8.60;;;2.40;;
74059;SDS011;62414;53.436;8.828;2023-10-08T05:46:52;7.55;;;2.15;;
74059;SDS011;62414;53.436;8.828;2023-10-08T05:49:17;12.13;;;3.67;;
74059;SDS011;62414;53.436;8.828;2023-10-08T05:51:43;8.07;;;2.80;;
74059;SDS011;62414;53.436;8.828;2023-10-08T05:54:08;7.50;;;2.67;;
74059;SDS011;62414;53.436;8.828;2023-10-08T05:56:35;7.23;;;3.20;;
74059;SDS011;62414;53.436;8.828;2023-10-08T05:59:00;7.30;;;3.17;;
74059;SDS011;62414;53.436;8.828;2023-10-08T06:01:26;10.23;;;2.80;;
74059;SDS011;62414;53.436;8.828;2023-10-08T06:03:51;7.80;;;2.60;;
74059;SDS011;62414;53.436;8.828;2023-10-08T06:06:17;7.38;;;2.30;;
74059;SDS011;62414;53.436;8.828;2023-10-08T06:08:42;8.73;;;2.43;;
74059;SDS011;62414;53.436;8.828;2023-10-08T06:11:07;7.57;;;2.47;;
74059;SDS011;62414;53.436;8.828;2023-10-08T06:13:34;6.90;;;2.77;;
74059;SDS011;62414;53.436;8.828;2023-10-08T06:16:00;8.45;;;2.60;;
74059;SDS011;62414;53.436;8.828;2023-10-08T06:18:26;8.38;;;2.78;;
74059;SDS011;62414;53.436;8.828;2023-10-08T06:20:53;10.00;;;2.80;;
74059;SDS011;62414;53.436;8.828;2023-10-08T06:23:18;6.35;;;2.40;;
74059;SDS011;62414;53.436;8.828;2023-10-08T06:25:44;7.47;;;2.63;;
74059;SDS011;62414;53.436;8.828;2023-10-08T06:28:09;8.33;;;2.70;;
74059;SDS011;62414;53.436;8.828;2023-10-08T06:30:37;6.60;;;2.83;;
74059;SDS011;62414;53.436;8.828;2023-10-08T06:33:03;8.35;;;2.63;;
74059;SDS011;62414;53.436;8.828;2023-10-08T06:35:29;8.63;;;3.10;;
74059;SDS011;62414;53.436;8.828;2023-10-08T06:37:54;9.37;;;3.30;;
74059;SDS011;62414;53.436;8.828;2023-10-08T06:40:20;6.63;;;2.20;;
74059;SDS011;62414;53.436;8.828;2023-10-08T06:42:45;8.63;;;2.90;;
74059;SDS011;62414;53.436;8.828;2023-10-08T06:45:11;4.97;;;1.17;;
74059;SDS011;62414;53.436;8.828;2023-10-08T06:47:37;4.50;;;1.00;;
74059;SDS011;62414;53.436;8.828;2023-10-08T06:50:03;9.45;;;1.23;;
74059;SDS011;62414;53.436;8.828;2023-10-08T06:52:29;4.95;;;1.23;;
74059;SDS011;62414;53.436;8.828;2023-10-08T06:54:54;5.07;;;1.10;;
74059;SDS011;62414;53.436;8.828;2023-10-08T06:57:20;3.97;;;1.20;;
74059;SDS011;62414;53.436;8.828;2023-10-08T06:59:45;6.97;;;1.10;;
74059;SDS011;62414;53.436;8.828;2023-10-08T07:02:11;9.13;;;1.53;;
74059;SDS011;62414;53.436;8.828;2023-10-08T07:04:37;3.33;;;0.90;;
74059;SDS011;62414;53.436;8.828;2023-10-08T07:07:03;5.60;;;1.30;;
74059;SDS011;62414;53.436;8.828;2023-10-08T07:09:28;5.33;;;1.30;;
74059;SDS011;62414;53.436;8.828;2023-10-08T07:11:54;7.23;;;1.20;;
74059;SDS011;62414;53.436;8.828;2023-10-08T07:14:19;5.88;;;2.22;;
74059;SDS011;62414;53.436;8.828;2023-10-08T07:16:45;5.17;;;2.23;;
74059;SDS011;62414;53.436;8.828;2023-10-08T07:19:11;15.70;;;5.28;;
74059;SDS011;62414;53.436;8.828;2023-10-08T07:21:37;18.57;;;6.90;;
74059;SDS011;62414;53.436;8.828;2023-10-08T07:24:03;29.63;;;11.18;;
74059;SDS011;62414;53.436;8.828;2023-10-08T07:26:29;24.93;;;9.70;;
74059;SDS011;62414;53.436;8.828;2023-10-08T07:28:54;20.73;;;7.93;;
74059;SDS011;62414;53.436;8.828;2023-10-08T07:31:20;9.87;;;3.40;;
74059;SDS011;62414;53.436;8.828;2023-10-08T07:33:47;3.88;;;1.25;;
74059;SDS011;62414;53.436;8.828;2023-10-08T07:36:13;12.18;;;1.50;;
74059;SDS011;62414;53.436;8.828;2023-10-08T07:38:40;10.83;;;1.10;;
74059;SDS011;62414;53.436;8.828;2023-10-08T07:41:05;3.25;;;0.95;;
74059;SDS011;62414;53.436;8.828;2023-10-08T07:43:31;6.03;;;1.27;;
74059;SDS011;62414;53.436;8.828;2023-10-08T07:45:56;4.40;;;0.73;;
74059;SDS011;62414;53.436;8.828;2023-10-08T07:48:22;4.13;;;0.83;;
74059;SDS011;62414;53.436;8.828;2023-10-08T07:50:47;4.20;;;1.00;;
74059;SDS011;62414;53.436;8.828;2023-10-08T07:53:12;3.80;;;0.50;;
74059;SDS011;62414;53.436;8.828;2023-10-08T07:55:39;4.75;;;0.75;;
74059;SDS011;62414;53.436;8.828;2023-10-08T07:58:05;4.38;;;1.05;;
74059;SDS011;62414;53.436;8.828;2023-10-08T08:00:30;4.70;;;0.60;;
74059;SDS011;62414;53.436;8.828;2023-10-08T08:02:56;4.93;;;0.63;;
74059;SDS011;62414;53.436;8.828;2023-10-08T08:05:21;5.27;;;1.03;;
74059;SDS011;62414;53.436;8.828;2023-10-08T08:07:46;6.13;;;0.73;;
74059;SDS011;62414;53.436;8.828;2023-10-08T08:10:12;3.93;;;0.60;;
74059;SDS011;62414;53.436;8.828;2023-10-08T08:12:39;5.50;;;0.63;;
74059;SDS011;62414;53.436;8.828;2023-10-08T08:15:05;4.80;;;0.80;;
74059;SDS011;62414;53.436;8.828;2023-10-08T08:17:31;7.45;;;0.93;;
74059;SDS011;62414;53.436;8.828;2023-10-08T08:19:56;6.17;;;0.60;;
74059;SDS011;62414;53.436;8.828;2023-10-08T08:22:21;4.57;;;0.83;;
74059;SDS011;62414;53.436;8.828;2023-10-08T08:24:47;2.93;;;0.60;;
74059;SDS011;62414;53.436;8.828;2023-10-08T08:27:12;8.60;;;0.70;;
74059;SDS011;62414;53.436;8.828;2023-10-08T08:29:39;3.80;;;0.50;;
74059;SDS011;62414;53.436;8.828;2023-10-08T08:32:05;5.32;;;0.80;;
74059;SDS011;62414;53.436;8.828;2023-10-08T08:34:30;7.10;;;0.87;;
74059;SDS011;62414;53.436;8.828;2023-10-08T08:36:55;3.67;;;0.40;;
74059;SDS011;62414;53.436;8.828;2023-10-08T08:39:21;5.80;;;0.80;;
74059;SDS011;62414;53.436;8.828;2023-10-08T08:41:46;4.77;;;0.53;;
74059;SDS011;62414;53.436;8.828;2023-10-08T08:44:12;3.10;;;0.40;;
74059;SDS011;62414;53.436;8.828;2023-10-08T08:46:38;3.53;;;0.40;;
74059;SDS011;62414;53.436;8.828;2023-10-08T08:49:04;4.13;;;0.73;;
74059;SDS011;62414;53.436;8.828;2023-10-08T08:51:31;7.10;;;0.60;;
74059;SDS011;62414;53.436;8.828;2023-10-08T08:53:57;3.20;;;0.50;;
74059;SDS011;62414;53.436;8.828;2023-10-08T08:56:22;3.23;;;0.47;;
74059;SDS011;62414;53.436;8.828;2023-10-08T08:58:48;5.32;;;0.60;;
74059;SDS011;62414;53.436;8.828;2023-10-08T09:01:14;8.75;;;0.52;;
74059;SDS011;62414;53.436;8.828;2023-10-08T09:03:43;1.50;;;0.20;;
74059;SDS011;62414;53.436;8.828;2023-10-08T09:06:08;3.70;;;0.43;;
74059;SDS011;62414;53.436;8.828;2023-10-08T09:08:34;3.33;;;0.50;;
74059;SDS011;62414;53.436;8.828;2023-10-08T09:11:00;2.37;;;0.30;;
74059;SDS011;62414;53.436;8.828;2023-10-08T09:13:26;2.35;;;0.50;;
74059;SDS011;62414;53.436;8.828;2023-10-08T09:15:52;2.78;;;0.32;;
74059;SDS011;62414;53.436;8.828;2023-10-08T09:18:19;3.83;;;0.40;;
74059;SDS011;62414;53.436;8.828;2023-10-08T09:20:47;3.33;;;0.30;;
74059;SDS011;62414;53.436;8.828;2023-10-08T09:23:13;4.28;;;0.30;;
74059;SDS011;62414;53.436;8.828;2023-10-08T09:25:40;2.83;;;0.50;;
74059;SDS011;62414;53.436;8.828;2023-10-08T09:28:06;2.22;;;0.40;;
74059;SDS011;62414;53.436;8.828;2023-10-08T09:30:32;4.38;;;0.50;;
74059;SDS011;62414;53.436;8.828;2023-10-08T09:32:57;3.27;;;0.40;;
74059;SDS011;62414;53.436;8.828;2023-10-08T09:35:23;5.68;;;0.30;;
74059;SDS011;62414;53.436;8.828;2023-10-08T09:37:51;3.97;;;0.40;;
74059;SDS011;62414;53.436;8.828;2023-10-08T09:40:16;3.08;;;0.30;;
74059;SDS011;62414;53.436;8.828;2023-10-08T09:42:42;5.07;;;0.63;;
74059;SDS011;62414;53.436;8.828;2023-10-08T09:45:09;2.97;;;0.40;;
74059;SDS011;62414;53.436;8.828;2023-10-08T09:47:36;4.87;;;0.50;;
74059;SDS011;62414;53.436;8.828;2023-10-08T09:50:03;2.75;;;0.40;;
74059;SDS011;62414;53.436;8.828;2023-10-08T09:52:33;2.15;;;0.60;;
74059;SDS011;62414;53.436;8.828;2023-10-08T09:55:09;7.35;;;0.77;;
74059;SDS011;62414;53.436;8.828;2023-10-08T09:57:34;2.40;;;0.22;;
74059;SDS011;62414;53.436;8.828;2023-10-08T10:00:00;2.17;;;0.27;;
74059;SDS011;62414;53.436;8.828;2023-10-08T10:02:26;3.13;;;0.43;;
74059;SDS011;62414;53.436;8.828;2023-10-08T10:04:51;3.93;;;0.63;;
74059;SDS011;62414;53.436;8.828;2023-10-08T10:07:16;1.90;;;0.30;;
74059;SDS011;62414;53.436;8.828;2023-10-08T10:09:42;3.00;;;0.40;;
74059;SDS011;62414;53.436;8.828;2023-10-08T10:12:09;2.65;;;0.40;;
74059;SDS011;62414;53.436;8.828;2023-10-08T10:14:42;3.05;;;0.40;;
74059;SDS011;62414;53.436;8.828;2023-10-08T10:17:09;2.42;;;0.30;;
74059;SDS011;62414;53.436;8.828;2023-10-08T10:19:38;3.00;;;0.50;;
74059;SDS011;62414;53.436;8.828;2023-10-08T10:22:03;2.27;;;0.40;;
74059;SDS011;62414;53.436;8.828;2023-10-08T10:24:32;3.37;;;0.70;;
74059;SDS011;62414;53.436;8.828;2023-10-08T10:27:10;3.55;;;0.50;;
74059;SDS011;62414;53.436;8.828;2023-10-08T10:29:39;3.75;;;0.50;;
74059;SDS011;62414;53.436;8.828;2023-10-08T10:32:05;4.78;;;0.70;;
74059;SDS011;62414;53.436;8.828;2023-10-08T10:34:30;3.70;;;0.70;;
74059;SDS011;62414;53.436;8.828;2023-10-08T10:36:56;2.03;;;0.43;;
74059;SDS011;62414;53.436;8.828;2023-10-08T10:39:23;3.30;;;0.40;;
74059;SDS011;62414;53.436;8.828;2023-10-08T10:41:49;2.60;;;0.47;;
74059;SDS011;62414;53.436;8.828;2023-10-08T10:44:15;2.63;;;0.50;;
74059;SDS011;62414;53.436;8.828;2023-10-08T10:46:41;3.33;;;0.50;;
74059;SDS011;62414;53.436;8.828;2023-10-08T10:49:07;2.10;;;0.40;;
74059;SDS011;62414;53.436;8.828;2023-10-08T10:51:33;3.40;;;0.30;;
74059;SDS011;62414;53.436;8.828;2023-10-08T10:53:58;2.85;;;0.40;;
74059;SDS011;62414;53.436;8.828;2023-10-08T10:56:24;2.90;;;0.40;;
74059;SDS011;62414;53.436;8.828;2023-10-08T10:58:50;2.47;;;0.32;;
74059;SDS011;62414;53.436;8.828;2023-10-08T11:01:16;2.27;;;0.30;;
74059;SDS011;62414;53.436;8.828;2023-10-08T11:03:42;3.17;;;0.40;;
74059;SDS011;62414;53.436;8.828;2023-10-08T11:06:07;3.43;;;0.50;;
74059;SDS011;62414;53.436;8.828;2023-10-08T11:08:33;2.30;;;0.30;;
74059;SDS011;62414;53.436;8.828;2023-10-08T11:10:58;2.40;;;0.50;;
74059;SDS011;62414;53.436;8.828;2023-10-08T11:13:24;2.60;;;0.30;;
74059;SDS011;62414;53.436;8.828;2023-10-08T11:15:50;2.17;;;0.40;;
74059;SDS011;62414;53.436;8.828;2023-10-08T11:18:18;2.85;;;0.40;;
74059;SDS011;62414;53.436;8.828;2023-10-08T11:20:44;2.20;;;0.40;;
74059;SDS011;62414;53.436;8.828;2023-10-08T11:23:10;4.20;;;0.50;;
74059;SDS011;62414;53.436;8.828;2023-10-08T11:25:35;4.00;;;0.40;;
74059;SDS011;62414;53.436;8.828;2023-10-08T11:28:01;3.43;;;0.40;;
74059;SDS011;62414;53.436;8.828;2023-10-08T11:30:26;4.73;;;0.40;;
74059;SDS011;62414;53.436;8.828;2023-10-08T11:32:52;3.42;;;0.45;;
74059;SDS011;62414;53.436;8.828;2023-10-08T11:35:19;2.47;;;0.40;;
74059;SDS011;62414;53.436;8.828;2023-10-08T11:37:44;3.25;;;0.50;;
74059;SDS011;62414;53.436;8.828;2023-10-08T11:40:21;3.30;;;0.40;;
74059;SDS011;62414;53.436;8.828;2023-10-08T11:42:47;2.17;;;0.40;;
74059;SDS011;62414;53.436;8.828;2023-10-08T11:45:12;3.67;;;0.30;;
74059;SDS011;62414;53.436;8.828;2023-10-08T11:47:38;2.83;;;0.40;;
74059;SDS011;62414;53.436;8.828;2023-10-08T11:50:03;3.63;;;0.30;;
74059;SDS011;62414;53.436;8.828;2023-10-08T11:52:31;2.80;;;0.40;;
74059;SDS011;62414;53.436;8.828;2023-10-08T11:54:56;4.13;;;0.38;;
74059;SDS011;62414;53.436;8.828;2023-10-08T11:57:22;3.03;;;0.50;;
74059;SDS011;62414;53.436;8.828;2023-10-08T11:59:47;2.83;;;0.33;;
74059;SDS011;62414;53.436;8.828;2023-10-08T12:02:13;3.20;;;0.40;;
74059;SDS011;62414;53.436;8.828;2023-10-08T12:04:38;2.97;;;0.50;;
74059;SDS011;62414;53.436;8.828;2023-10-08T12:07:03;4.60;;;0.70;;
74059;SDS011;62414;53.436;8.828;2023-10-08T12:09:30;3.33;;;0.50;;
74059;SDS011;62414;53.436;8.828;2023-10-08T12:11:56;3.47;;;0.40;;
74059;SDS011;62414;53.436;8.828;2023-10-08T12:14:21;2.70;;;0.50;;
74059;SDS011;62414;53.436;8.828;2023-10-08T12:16:46;4.85;;;0.50;;
74059;SDS011;62414;53.436;8.828;2023-10-08T12:19:12;6.03;;;0.80;;
74059;SDS011;62414;53.436;8.828;2023-10-08T12:21:37;2.53;;;0.40;;
74059;SDS011;62414;53.436;8.828;2023-10-08T12:24:03;5.00;;;0.47;;
74059;SDS011;62414;53.436;8.828;2023-10-08T12:26:30;3.43;;;0.50;;
74059;SDS011;62414;53.436;8.828;2023-10-08T12:28:56;3.55;;;0.50;;
74059;SDS011;62414;53.436;8.828;2023-10-08T12:31:21;2.63;;;0.30;;
74059;SDS011;62414;53.436;8.828;2023-10-08T12:33:46;2.17;;;0.37;;
74059;SDS011;62414;53.436;8.828;2023-10-08T12:36:12;2.77;;;0.40;;
74059;SDS011;62414;53.436;8.828;2023-10-08T12:38:38;2.43;;;0.60;;
74059;SDS011;62414;53.436;8.828;2023-10-08T12:41:04;3.17;;;0.50;;
74059;SDS011;62414;53.436;8.828;2023-10-08T12:43:31;2.83;;;0.60;;
74059;SDS011;62414;53.436;8.828;2023-10-08T12:45:56;4.45;;;0.50;;
74059;SDS011;62414;53.436;8.828;2023-10-08T12:48:22;3.37;;;0.57;;
74059;SDS011;62414;53.436;8.828;2023-10-08T12:50:48;3.38;;;0.60;;
74059;SDS011;62414;53.436;8.828;2023-10-08T12:53:13;3.50;;;0.50;;
74059;SDS011;62414;53.436;8.828;2023-10-08T12:55:39;3.17;;;0.75;;
74059;SDS011;62414;53.436;8.828;2023-10-08T12:58:04;3.70;;;0.50;;
74059;SDS011;62414;53.436;8.828;2023-10-08T13:00:31;3.50;;;0.60;;
74059;SDS011;62414;53.436;8.828;2023-10-08T13:02:56;4.07;;;0.75;;
74059;SDS011;62414;53.436;8.828;2023-10-08T13:05:22;5.37;;;0.60;;
74059;SDS011;62414;53.436;8.828;2023-10-08T13:07:48;3.13;;;0.70;;
74059;SDS011;62414;53.436;8.828;2023-10-08T13:10:13;3.43;;;0.50;;
74059;SDS011;62414;53.436;8.828;2023-10-08T13:12:39;3.95;;;0.55;;
74059;SDS011;62414;53.436;8.828;2023-10-08T13:15:04;3.93;;;1.13;;
74059;SDS011;62414;53.436;8.828;2023-10-08T13:17:32;3.05;;;0.43;;
74059;SDS011;62414;53.436;8.828;2023-10-08T13:19:57;3.00;;;0.50;;
74059;SDS011;62414;53.436;8.828;2023-10-08T13:22:23;3.17;;;0.50;;
74059;SDS011;62414;53.436;8.828;2023-10-08T13:24:48;3.73;;;0.60;;
74059;SDS011;62414;53.436;8.828;2023-10-08T13:27:14;3.47;;;0.50;;
74059;SDS011;62414;53.436;8.828;2023-10-08T13:29:39;3.17;;;0.50;;
74059;SDS011;62414;53.436;8.828;2023-10-08T13:32:04;2.73;;;0.40;;
74059;SDS011;62414;53.436;8.828;2023-10-08T13:34:31;3.53;;;0.40;;
74059;SDS011;62414;53.436;8.828;2023-10-08T13:36:57;5.57;;;0.40;;
74059;SDS011;62414;53.436;8.828;2023-10-08T13:39:22;3.53;;;0.50;;
74059;SDS011;62414;53.436;8.828;2023-10-08T13:41:47;4.18;;;0.75;;
74059;SDS011;62414;53.436;8.828;2023-10-08T13:44:13;3.10;;;0.43;;
74059;SDS011;62414;53.436;8.828;2023-10-08T13:46:38;3.60;;;0.60;;
74059;SDS011;62414;53.436;8.828;2023-10-08T13:49:04;4.95;;;0.82;;
74059;SDS011;62414;53.436;8.828;2023-10-08T13:51:31;5.13;;;0.63;;
74059;SDS011;62414;53.436;8.828;2023-10-08T13:53:56;3.25;;;0.60;;
74059;SDS011;62414;53.436;8.828;2023-10-08T13:56:22;3.50;;;0.57;;
74059;SDS011;62414;53.436;8.828;2023-10-08T13:58:47;2.95;;;0.40;;
74059;SDS011;62414;53.436;8.828;2023-10-08T14:01:13;4.53;;;0.50;;
74059;SDS011;62414;53.436;8.828;2023-10-08T14:03:38;3.10;;;0.80;;
74059;SDS011;62414;53.436;8.828;2023-10-08T14:06:04;4.93;;;0.60;;
74059;SDS011;62414;53.436;8.828;2023-10-08T14:08:31;3.65;;;0.75;;
74059;SDS011;62414;53.436;8.828;2023-10-08T14:10:56;2.90;;;0.50;;
74059;SDS011;62414;53.436;8.828;2023-10-08T14:13:22;3.87;;;0.70;;
74059;SDS011;62414;53.436;8.828;2023-10-08T14:15:48;2.93;;;0.90;;
74059;SDS011;62414;53.436;8.828;2023-10-08T14:18:13;3.77;;;0.40;;
74059;SDS011;62414;53.436;8.828;2023-10-08T14:20:38;2.70;;;0.60;;
74059;SDS011;62414;53.436;8.828;2023-10-08T14:23:04;4.32;;;0.70;;
74059;SDS011;62414;53.436;8.828;2023-10-08T14:25:31;7.87;;;3.60;;
74059;SDS011;62414;53.436;8.828;2023-10-08T14:27:56;4.30;;;0.80;;
74059;SDS011;62414;53.436;8.828;2023-10-08T14:30:22;7.20;;;0.50;;
74059;SDS011;62414;53.436;8.828;2023-10-08T14:32:47;3.77;;;0.60;;
74059;SDS011;62414;53.436;8.828;2023-10-08T14:35:13;2.90;;;0.53;;
74059;SDS011;62414;53.436;8.828;2023-10-08T14:37:38;5.85;;;2.00;;
74059;SDS011;62414;53.436;8.828;2023-10-08T14:40:04;11.73;;;4.77;;